Time;durP1;ratioP1;P1;durP2;ratioP2;P2;SDS_P1;SDS_P2;PMS_P1;PMS_P2;Temp;Humidity;BMP_temperature;BMP_pressure;BME280_temperature;BME280_humidity;BME280_pressure;Samples;Min_cycle;Max_cycle;Signal;HPM_P1;HPM_P2
2022/01/16 00:02:07;;;;;;;18.63;12.17;;;4.40;99.90;;;;;;5003233;28;20476;-85
2022/01/16 00:04:34;;;;;;;15.00;10.93;;;4.50;99.90;;;;;;5017889;28;20466;-84
2022/01/16 00:07:04;;;;;;;14.20;9.33;;;4.30;99.90;;;;;;5005996;28;20539;-85
2022/01/16 00:09:31;;;;;;;12.83;8.93;;;4.40;99.90;;;;;;5022760;28;20471;-85
2022/01/16 00:12:00;;;;;;;15.30;10.07;;;4.40;99.90;;;;;;5023382;28;20488;-85
2022/01/16 00:14:28;;;;;;;16.17;10.50;;;4.20;99.90;;;;;;5023455;28;20492;-85
2022/01/16 00:16:55;;;;;;;15.33;10.70;;;4.20;99.90;;;;;;5023901;28;20459;-85
2022/01/16 00:19:22;;;;;;;14.53;9.83;;;4.10;99.90;;;;;;5024117;28;20488;-85
2022/01/16 00:21:49;;;;;;;15.00;9.93;;;4.10;99.90;;;;;;5025562;28;20958;-86
2022/01/16 00:24:17;;;;;;;13.07;9.00;;;4.20;99.90;;;;;;5027997;28;20489;-85
2022/01/16 00:26:44;;;;;;;13.57;9.50;;;4.20;99.90;;;;;;5021663;28;20454;-85
2022/01/16 00:29:12;;;;;;;14.40;9.70;;;4.10;99.90;;;;;;5012979;28;20455;-85
2022/01/16 00:31:40;;;;;;;16.97;11.50;;;4.10;99.90;;;;;;5018114;28;20481;-83
2022/01/16 00:34:08;;;;;;;18.33;11.47;;;3.90;99.90;;;;;;5017081;28;20708;-84
2022/01/16 00:36:36;;;;;;;15.20;9.90;;;4.00;99.90;;;;;;5020398;28;20473;-84
2022/01/16 00:39:04;;;;;;;14.60;10.03;;;4.10;99.90;;;;;;5019663;28;20929;-84
2022/01/16 00:41:34;;;;;;;15.37;10.10;;;4.10;99.90;;;;;;5017781;28;20458;-84
2022/01/16 00:44:01;;;;;;;17.40;11.03;;;4.10;99.90;;;;;;5018281;28;20512;-85
2022/01/16 00:46:28;;;;;;;12.67;9.10;;;4.10;99.90;;;;;;5017939;28;20463;-85
2022/01/16 00:48:55;;;;;;;14.83;9.97;;;4.20;99.90;;;;;;5018822;28;21032;-85
2022/01/16 00:51:21;;;;;;;15.10;10.73;;;4.10;99.90;;;;;;5010466;28;20520;-84
2022/01/16 00:53:48;;;;;;;13.67;9.00;;;4.00;99.90;;;;;;4997697;28;20470;-85
2022/01/16 00:56:16;;;;;;;16.27;9.60;;;4.00;99.90;;;;;;5012813;28;20532;-85
2022/01/16 00:58:44;;;;;;;12.73;8.47;;;4.00;99.90;;;;;;5017305;28;20460;-85
2022/01/16 01:01:11;;;;;;;17.53;10.17;;;4.00;99.90;;;;;;5017056;28;20961;-85
2022/01/16 01:03:38;;;;;;;17.63;10.90;;;4.00;99.90;;;;;;5018015;28;20499;-86
2022/01/16 01:06:06;;;;;;;13.63;8.83;;;4.10;99.90;;;;;;5016775;28;20462;-85
2022/01/16 01:08:33;;;;;;;20.77;12.90;;;4.00;99.90;;;;;;4996527;28;20453;-86
2022/01/16 01:11:04;;;;;;;16.03;10.30;;;4.00;99.90;;;;;;5008013;28;20529;-85
2022/01/16 01:13:34;;;;;;;17.70;11.30;;;4.10;99.90;;;;;;5012480;28;20563;-86
2022/01/16 01:16:04;;;;;;;21.00;12.43;;;4.10;99.90;;;;;;5016102;28;20661;-85
2022/01/16 01:18:32;;;;;;;19.33;12.67;;;4.10;99.90;;;;;;5016162;28;20455;-85
2022/01/16 01:21:01;;;;;;;17.10;11.40;;;4.10;99.90;;;;;;5016260;28;20477;-85
2022/01/16 01:23:28;;;;;;;18.80;12.27;;;4.10;99.90;;;;;;5015339;28;20466;-85
2022/01/16 01:25:55;;;;;;;30.93;26.93;;;4.20;99.90;;;;;;5007691;28;20488;-85
2022/01/16 01:28:22;;;;;;;23.27;16.27;;;4.20;99.90;;;;;;5011090;28;20460;-85
2022/01/16 01:30:49;;;;;;;21.17;14.10;;;4.20;99.90;;;;;;5017055;28;20462;-85
2022/01/16 01:33:20;;;;;;;26.23;15.27;;;4.20;99.90;;;;;;5016226;28;20860;-84
2022/01/16 01:35:47;;;;;;;28.30;17.00;;;4.10;99.90;;;;;;5015630;28;20472;-84
2022/01/16 01:38:17;;;;;;;24.50;16.27;;;4.10;99.90;;;;;;5015626;28;20496;-85
2022/01/16 01:40:45;;;;;;;20.17;13.00;;;4.20;99.90;;;;;;5015903;28;20490;-85
2022/01/16 01:51:27;;;;;;;19.83;13.27;;;3.70;99.90;;;;;;5034001;28;20441;-85
2022/01/16 01:53:56;;;;;;;16.10;11.40;;;3.70;99.90;;;;;;5017837;28;20501;-86
2022/01/16 01:56:25;;;;;;;16.20;11.80;;;3.70;99.90;;;;;;5036133;28;20462;-85
2022/01/16 01:58:53;;;;;;;17.40;12.20;;;3.70;99.90;;;;;;5034109;28;20539;-84
2022/01/16 02:01:20;;;;;;;17.30;12.33;;;3.70;99.90;;;;;;5028752;28;20457;-84
2022/01/16 02:03:49;;;;;;;22.27;12.93;;;3.70;99.90;;;;;;5032475;28;21007;-84
2022/01/16 02:06:18;;;;;;;19.97;12.33;;;3.60;99.90;;;;;;5032918;28;20494;-84
2022/01/16 02:08:46;;;;;;;15.13;10.57;;;3.60;99.90;;;;;;5030195;28;20478;-85
2022/01/16 02:11:14;;;;;;;17.60;12.13;;;3.70;99.90;;;;;;5021781;28;20453;-84
2022/01/16 02:13:50;;;;;;;18.47;13.93;;;3.60;99.90;;;;;;5020574;28;20495;-85
2022/01/16 02:33:23;;;;;;;18.80;13.03;;;3.60;99.90;;;;;;5024526;28;20509;-85
2022/01/16 02:35:52;;;;;;;17.37;12.33;;;3.60;99.90;;;;;;5024652;28;20460;-86
2022/01/16 02:38:21;;;;;;;18.43;11.20;;;3.60;99.90;;;;;;5013435;28;20461;-84
2022/01/16 02:40:50;;;;;;;18.90;13.20;;;3.60;99.90;;;;;;5027287;28;20488;-85
2022/01/16 02:43:20;;;;;;;22.00;14.73;;;3.60;99.90;;;;;;5020068;28;20564;-84
2022/01/16 02:45:58;;;;;;;19.23;12.63;;;3.60;99.90;;;;;;5019607;28;20457;-84
2022/01/16 02:48:25;;;;;;;20.53;13.00;;;3.60;99.90;;;;;;5019987;28;20461;-86
2022/01/16 02:50:52;;;;;;;22.80;14.27;;;3.60;99.90;;;;;;5021074;28;20445;-83
2022/01/16 02:53:21;;;;;;;26.37;14.77;;;3.60;99.90;;;;;;5021165;28;20492;-84
2022/01/16 02:55:48;;;;;;;19.27;13.37;;;3.80;99.90;;;;;;5020333;28;20464;-85
2022/01/16 02:58:15;;;;;;;22.27;14.93;;;3.70;99.90;;;;;;5019028;28;20443;-84
2022/01/16 03:00:42;;;;;;;23.73;15.13;;;3.70;99.90;;;;;;5019460;28;20450;-83
2022/01/16 03:03:09;;;;;;;24.10;16.33;;;3.70;99.90;;;;;;5019738;28;20469;-83
2022/01/16 03:05:38;;;;;;;27.10;16.60;;;3.70;99.90;;;;;;5020231;28;20943;-82
2022/01/16 03:08:06;;;;;;;23.20;14.40;;;3.70;99.90;;;;;;5020422;28;20540;-84
2022/01/16 03:13:20;;;;;;;28.93;17.60;;;3.70;99.90;;;;;;5020348;28;20496;-85
2022/01/16 03:15:47;;;;;;;26.93;17.60;;;3.70;99.90;;;;;;5019762;28;20461;-84
2022/01/16 03:23:43;;;;;;;28.67;18.83;;;3.80;99.90;;;;;;5018509;28;20477;-84
2022/01/16 03:26:11;;;;;;;26.47;16.93;;;3.80;99.90;;;;;;5018966;28;20817;-84
2022/01/16 03:28:38;;;;;;;30.23;19.60;;;3.80;99.90;;;;;;5017992;28;20564;-84
2022/01/16 03:31:05;;;;;;;25.57;16.47;;;3.70;99.90;;;;;;5018633;28;20894;-84
2022/01/16 03:33:32;;;;;;;26.90;18.03;;;3.80;99.90;;;;;;5018688;28;20486;-85
2022/01/16 03:35:58;;;;;;;35.40;20.20;;;3.80;99.90;;;;;;5013604;28;20870;-84
2022/01/16 03:38:25;;;;;;;29.53;20.23;;;3.70;99.90;;;;;;5008089;28;20564;-85
2022/01/16 03:40:52;;;;;;;32.97;20.17;;;3.80;99.90;;;;;;5014998;28;20458;-84
2022/01/16 03:43:21;;;;;;;37.77;23.47;;;3.70;99.90;;;;;;5017967;28;21292;-83
2022/01/16 03:45:48;;;;;;;33.33;23.10;;;3.80;99.90;;;;;;5018816;28;20458;-84
2022/01/16 03:48:16;;;;;;;35.57;22.00;;;3.70;99.90;;;;;;5016335;28;20545;-84
2022/01/16 03:50:43;;;;;;;33.33;22.60;;;3.80;99.90;;;;;;5016252;28;20445;-84
2022/01/16 03:53:10;;;;;;;37.23;23.53;;;3.80;99.90;;;;;;5018701;28;20497;-84
2022/01/16 03:55:37;;;;;;;35.13;20.70;;;3.80;99.90;;;;;;5019048;28;20449;-84
2022/01/16 03:58:05;;;;;;;38.07;22.47;;;3.80;99.90;;;;;;5019853;28;20463;-84
2022/01/16 04:00:33;;;;;;;35.17;21.80;;;3.70;99.90;;;;;;5019073;28;20461;-84
2022/01/16 04:03:00;;;;;;;31.70;22.60;;;3.70;99.90;;;;;;5019317;28;20480;-82
2022/01/16 04:05:27;;;;;;;36.30;22.10;;;3.70;99.90;;;;;;5014373;28;20530;-84
2022/01/16 04:07:54;;;;;;;35.47;22.67;;;3.70;99.90;;;;;;5015290;28;20457;-85
2022/01/16 04:10:22;;;;;;;43.00;24.33;;;3.70;99.90;;;;;;5020028;28;20528;-83
2022/01/16 04:12:49;;;;;;;35.73;22.17;;;3.70;99.90;;;;;;5020165;28;20525;-84
2022/01/16 04:15:35;;;;;;;45.40;25.47;;;3.80;99.90;;;;;;5020587;28;20503;-83
2022/01/16 04:18:07;;;;;;;38.93;23.63;;;3.80;99.90;;;;;;5019952;28;20454;-85
2022/01/16 04:20:34;;;;;;;44.60;24.73;;;3.80;99.90;;;;;;5020914;28;20441;-85
2022/01/16 04:23:02;;;;;;;36.77;24.23;;;3.80;99.90;;;;;;5019385;28;20506;-85
2022/01/16 04:25:29;;;;;;;41.10;26.10;;;3.70;99.90;;;;;;5019699;28;20457;-84
2022/01/16 04:27:56;;;;;;;39.37;24.20;;;3.70;99.90;;;;;;5013048;28;20446;-85
2022/01/16 04:30:23;;;;;;;41.97;23.97;;;3.80;99.90;;;;;;5020960;28;20829;-85
2022/01/16 04:32:50;;;;;;;42.30;25.40;;;3.80;99.90;;;;;;5020830;28;20481;-84
2022/01/16 04:35:18;;;;;;;44.20;25.50;;;3.80;99.90;;;;;;5020109;28;20446;-85
2022/01/16 04:37:45;;;;;;;41.90;27.73;;;3.90;99.90;;;;;;5020731;28;20449;-85
2022/01/16 04:40:14;;;;;;;45.40;26.07;;;3.90;99.90;;;;;;5021420;28;20456;-85
2022/01/16 04:45:25;;;;;;;46.60;27.23;;;3.90;99.90;;;;;;5020525;28;20794;-85
2022/01/16 04:47:52;;;;;;;38.43;24.27;;;4.00;99.90;;;;;;5020448;28;20455;-84
2022/01/16 04:50:24;;;;;;;40.20;26.20;;;4.00;99.90;;;;;;5022704;28;20486;-85
2022/01/16 04:52:51;;;;;;;53.50;28.50;;;4.00;99.90;;;;;;5020421;28;20491;-84
2022/01/16 04:55:18;;;;;;;45.53;26.17;;;3.80;99.90;;;;;;5030972;28;20513;-84
2022/01/16 04:57:45;;;;;;;43.47;26.47;;;3.90;99.90;;;;;;5020630;28;20460;-84
2022/01/16 05:00:15;;;;;;;50.10;28.30;;;3.80;99.90;;;;;;5036227;28;20481;-85
2022/01/16 05:02:42;;;;;;;47.90;28.50;;;3.80;99.90;;;;;;5030826;28;20481;-83
2022/01/16 05:05:09;;;;;;;52.77;29.10;;;3.80;99.90;;;;;;5016904;28;20456;-84
2022/01/16 05:07:37;;;;;;;50.57;26.80;;;3.80;99.90;;;;;;5016812;28;20449;-85
2022/01/16 05:10:06;;;;;;;45.27;27.40;;;3.90;99.90;;;;;;5016820;28;20457;-84
2022/01/16 05:12:35;;;;;;;44.47;25.53;;;3.80;99.90;;;;;;5016769;28;20486;-84
2022/01/16 05:17:48;;;;;;;45.57;27.30;;;3.80;99.90;;;;;;5017068;28;20498;-85
2022/01/16 05:20:15;;;;;;;47.73;29.03;;;3.90;99.90;;;;;;5017336;28;20456;-84
2022/01/16 05:22:43;;;;;;;46.07;28.73;;;3.70;99.90;;;;;;5016381;28;20474;-82
2022/01/16 05:25:13;;;;;;;47.80;32.67;;;3.70;99.90;;;;;;5018357;28;20480;-79
2022/01/16 05:27:40;;;;;;;49.50;30.83;;;3.80;99.90;;;;;;5010889;28;20544;-80
2022/01/16 05:30:08;;;;;;;50.00;28.83;;;3.90;99.90;;;;;;5019702;28;20453;-79
2022/01/16 05:32:35;;;;;;;46.43;29.47;;;3.90;99.90;;;;;;5019980;28;20509;-80
2022/01/16 05:35:02;;;;;;;44.37;26.17;;;4.00;99.90;;;;;;5021479;28;20456;-79
2022/01/16 05:37:29;;;;;;;50.83;31.40;;;4.00;99.90;;;;;;5013704;28;20546;-79
2022/01/16 05:39:58;;;;;;;48.00;28.27;;;3.90;99.90;;;;;;4999944;28;20461;-81
2022/01/16 05:42:24;;;;;;;52.63;30.47;;;3.90;99.90;;;;;;5015739;28;20464;-80
2022/01/16 05:44:51;;;;;;;50.27;30.13;;;3.90;99.90;;;;;;5015376;28;20836;-80
2022/01/16 05:47:18;;;;;;;49.67;28.87;;;4.00;99.90;;;;;;5009118;28;20456;-80
2022/01/16 05:49:45;;;;;;;46.80;29.80;;;4.00;99.90;;;;;;5010072;28;20466;-80
2022/01/16 05:52:13;;;;;;;50.50;28.13;;;4.00;99.90;;;;;;5015628;28;20958;-80
2022/01/16 05:54:40;;;;;;;51.00;28.83;;;3.90;99.90;;;;;;5015163;28;20477;-80
2022/01/16 05:57:08;;;;;;;54.73;30.40;;;3.90;99.90;;;;;;5015248;28;20449;-81
2022/01/16 05:59:35;;;;;;;67.67;29.97;;;3.80;99.90;;;;;;5015575;28;20965;-80
2022/01/16 06:02:02;;;;;;;50.97;28.00;;;3.80;99.90;;;;;;5015202;28;20970;-81
2022/01/16 06:04:29;;;;;;;53.43;30.00;;;3.80;99.90;;;;;;5015375;28;20473;-81
2022/01/16 06:06:56;;;;;;;60.60;31.03;;;3.80;99.90;;;;;;5014761;28;20460;-80
2022/01/16 06:09:26;;;;;;;47.17;27.43;;;3.80;99.90;;;;;;5015224;28;20498;-81
2022/01/16 06:11:54;;;;;;;52.27;30.23;;;3.80;99.90;;;;;;5015799;28;20458;-80
2022/01/16 06:14:23;;;;;;;60.07;33.13;;;3.80;99.90;;;;;;5015029;28;20481;-80
2022/01/16 06:16:50;;;;;;;54.50;31.03;;;3.80;99.90;;;;;;5013663;28;20470;-81
2022/01/16 06:19:17;;;;;;;59.93;32.53;;;3.80;99.90;;;;;;5005670;28;20461;-80
2022/01/16 06:21:43;;;;;;;58.03;31.67;;;3.80;99.90;;;;;;5016215;28;20473;-81
2022/01/16 06:24:10;;;;;;;65.07;32.73;;;3.80;99.90;;;;;;5015173;28;20474;-80
2022/01/16 06:26:37;;;;;;;54.50;33.90;;;3.80;99.90;;;;;;5015866;28;20450;-81
2022/01/16 06:29:04;;;;;;;62.90;32.97;;;3.90;99.90;;;;;;5014484;28;20456;-81
2022/01/16 06:31:32;;;;;;;58.90;33.10;;;3.90;99.90;;;;;;5016293;28;20460;-81
2022/01/16 06:34:01;;;;;;;54.43;30.87;;;3.90;99.90;;;;;;5015831;28;20499;-81
2022/01/16 06:36:29;;;;;;;61.13;32.63;;;3.90;99.90;;;;;;5017084;28;20453;-80
2022/01/16 06:38:56;;;;;;;49.13;30.60;;;4.00;99.90;;;;;;5016160;28;20533;-82
2022/01/16 06:41:23;;;;;;;47.50;30.57;;;4.00;99.90;;;;;;5017183;28;20453;-81
2022/01/16 06:43:50;;;;;;;58.93;34.20;;;4.00;99.90;;;;;;5016630;28;20474;-81
2022/01/16 06:46:17;;;;;;;55.17;32.63;;;4.00;99.90;;;;;;5016556;28;20454;-81
2022/01/16 06:48:45;;;;;;;56.63;32.20;;;4.00;99.90;;;;;;4999130;28;20450;-81
2022/01/16 06:51:12;;;;;;;59.80;34.07;;;4.00;99.90;;;;;;5008923;28;20541;-81
2022/01/16 06:53:39;;;;;;;54.20;31.30;;;4.00;99.90;;;;;;4999975;28;20493;-81
2022/01/16 06:56:06;;;;;;;55.07;33.40;;;4.00;99.90;;;;;;4997604;28;20465;-81
2022/01/16 06:58:33;;;;;;;57.97;34.00;;;4.00;99.90;;;;;;5012626;28;20466;-81
2022/01/16 07:00:59;;;;;;;59.33;35.47;;;4.10;99.90;;;;;;5015678;28;20461;-80
2022/01/16 07:03:26;;;;;;;59.00;34.17;;;4.00;99.90;;;;;;5016494;28;20472;-81
2022/01/16 07:05:54;;;;;;;48.23;31.83;;;4.00;99.90;;;;;;5017303;28;20451;-81
2022/01/16 07:08:23;;;;;;;58.40;31.87;;;4.10;99.90;;;;;;5002711;28;20455;-81
2022/01/16 07:10:50;;;;;;;58.37;34.30;;;4.00;99.90;;;;;;4998454;28;20545;-80
2022/01/16 07:13:17;;;;;;;59.47;34.60;;;4.00;99.90;;;;;;4998469;28;21006;-80
2022/01/16 07:15:44;;;;;;;52.23;32.70;;;4.10;99.90;;;;;;4999380;28;20458;-80
2022/01/16 07:18:11;;;;;;;54.43;33.00;;;4.10;99.90;;;;;;4999392;28;20456;-80
2022/01/16 07:20:37;;;;;;;54.43;33.37;;;4.10;99.90;;;;;;4999104;28;20451;-80
2022/01/16 07:23:06;;;;;;;59.87;32.03;;;4.10;99.90;;;;;;4999137;28;20664;-79
2022/01/16 07:25:33;;;;;;;49.30;32.20;;;4.10;99.90;;;;;;5010405;28;20540;-80
2022/01/16 07:28:00;;;;;;;52.90;30.40;;;4.10;99.90;;;;;;5018397;28;20545;-80
2022/01/16 07:30:27;;;;;;;58.10;34.37;;;4.20;99.90;;;;;;5011238;28;20443;-79
2022/01/16 07:32:54;;;;;;;67.43;35.23;;;4.20;99.90;;;;;;4999057;28;20865;-80
2022/01/16 07:35:20;;;;;;;54.10;31.87;;;4.20;99.90;;;;;;4998563;28;20492;-80
2022/01/16 07:37:48;;;;;;;54.60;33.83;;;4.20;99.90;;;;;;5014033;28;20912;-80
2022/01/16 07:40:17;;;;;;;50.70;33.30;;;4.20;99.90;;;;;;5005167;28;20465;-80
2022/01/16 07:42:44;;;;;;;51.60;31.03;;;4.20;99.90;;;;;;4998910;28;21120;-80
2022/01/16 07:45:12;;;;;;;59.40;34.33;;;4.30;99.90;;;;;;4998643;28;20456;-81
2022/01/16 07:47:38;;;;;;;53.37;32.07;;;4.20;99.90;;;;;;5014435;28;20460;-81
2022/01/16 07:50:06;;;;;;;59.73;34.40;;;4.20;99.90;;;;;;5016724;28;20474;-78
2022/01/16 07:52:33;;;;;;;54.67;33.57;;;4.30;99.90;;;;;;5019074;28;20481;-80
2022/01/16 07:55:00;;;;;;;58.93;35.10;;;4.30;99.90;;;;;;5018181;28;20485;-81
2022/01/16 07:57:28;;;;;;;50.60;32.20;;;4.30;99.90;;;;;;5017808;28;20954;-80
2022/01/16 07:59:55;;;;;;;57.50;34.07;;;4.30;99.90;;;;;;5018998;28;20465;-81
2022/01/16 08:02:21;;;;;;;54.27;35.20;;;4.40;99.90;;;;;;5027843;28;20450;-80
2022/01/16 08:04:48;;;;;;;57.70;33.13;;;4.40;99.90;;;;;;5021106;28;20504;-80
2022/01/16 08:07:15;;;;;;;52.43;32.40;;;4.40;99.90;;;;;;5017394;28;20549;-81
2022/01/16 08:09:43;;;;;;;49.40;30.90;;;4.40;99.90;;;;;;5020148;28;20482;-79
2022/01/16 08:12:12;;;;;;;57.77;33.20;;;4.10;99.90;;;;;;5012471;28;20482;-81
2022/01/16 08:14:42;;;;;;;56.53;35.17;;;4.50;99.90;;;;;;5013229;28;21094;-81
2022/01/16 08:17:08;;;;;;;53.73;34.17;;;4.40;99.90;;;;;;5009711;28;20457;-81
2022/01/16 08:19:35;;;;;;;57.80;32.50;;;4.50;99.90;;;;;;5008716;28;20450;-84
2022/01/16 08:22:02;;;;;;;56.47;35.07;;;4.50;99.90;;;;;;5008641;28;20817;-83
2022/01/16 08:24:29;;;;;;;57.70;35.30;;;4.50;99.90;;;;;;5012899;28;20471;-83
2022/01/16 08:26:56;;;;;;;56.30;32.70;;;4.50;99.90;;;;;;5012867;28;20538;-83
2022/01/16 08:29:23;;;;;;;60.50;35.90;;;4.50;99.90;;;;;;5012634;28;20823;-82
2022/01/16 08:31:51;;;;;;;56.03;35.27;;;4.50;99.90;;;;;;5019910;28;20450;-83
2022/01/16 08:34:17;;;;;;;55.20;32.50;;;4.50;99.90;;;;;;5022518;28;20486;-81
2022/01/16 08:36:44;;;;;;;55.67;32.53;;;4.50;99.90;;;;;;5022661;28;20442;-83
2022/01/16 08:39:11;;;;;;;48.67;30.00;;;4.50;99.90;;;;;;5023651;28;20629;-83
2022/01/16 08:41:38;;;;;;;51.60;33.23;;;4.60;99.90;;;;;;5023135;28;20460;-83
2022/01/16 08:44:06;;;;;;;60.50;35.70;;;4.60;99.90;;;;;;5023100;28;20477;-82
2022/01/16 08:46:33;;;;;;;55.73;33.17;;;4.60;99.90;;;;;;5022931;28;20454;-82
2022/01/16 08:49:02;;;;;;;54.13;34.37;;;4.60;99.90;;;;;;5017795;28;20457;-83
2022/01/16 08:51:29;;;;;;;49.00;34.20;;;4.70;99.90;;;;;;5023814;28;20483;-83
2022/01/16 08:53:55;;;;;;;53.47;34.47;;;4.80;99.90;;;;;;5022362;28;20545;-83
2022/01/16 08:56:22;;;;;;;51.60;33.47;;;4.90;99.90;;;;;;5023610;28;20853;-82
2022/01/16 08:58:49;;;;;;;48.97;33.30;;;4.80;99.90;;;;;;5023422;28;20482;-83
2022/01/16 09:01:16;;;;;;;52.67;32.27;;;4.90;99.90;;;;;;5023203;28;21004;-83
2022/01/16 09:03:43;;;;;;;61.70;39.50;;;4.90;99.90;;;;;;5023220;28;20568;-84
2022/01/16 09:06:11;;;;;;;52.80;33.77;;;4.90;99.90;;;;;;5015274;28;20484;-82
2022/01/16 09:08:38;;;;;;;45.33;32.20;;;5.00;99.90;;;;;;5022308;28;20465;-84
2022/01/16 09:11:05;;;;;;;45.00;30.37;;;5.00;99.90;;;;;;5023798;28;20523;-84
2022/01/16 09:13:32;;;;;;;49.70;32.63;;;5.00;99.90;;;;;;5024477;28;20495;-83
2022/01/16 09:15:59;;;;;;;53.60;35.07;;;5.10;99.90;;;;;;5024159;28;20455;-84
2022/01/16 09:18:26;;;;;;;54.40;31.30;;;5.20;99.90;;;;;;5018347;28;20551;-84
2022/01/16 09:20:53;;;;;;;54.00;33.90;;;5.30;99.90;;;;;;5012192;28;20525;-83
2022/01/16 09:23:21;;;;;;;46.27;30.57;;;5.10;99.90;;;;;;5019206;28;20557;-82
2022/01/16 09:25:48;;;;;;;53.40;33.30;;;5.20;99.90;;;;;;5007309;28;20939;-83
2022/01/16 09:28:15;;;;;;;49.50;32.50;;;5.10;99.90;;;;;;5017289;28;20491;-83
2022/01/16 09:30:42;;;;;;;50.70;31.90;;;5.20;99.90;;;;;;5020807;28;20542;-83
2022/01/16 09:33:09;;;;;;;48.87;32.90;;;5.20;99.90;;;;;;5007045;28;20488;-81
2022/01/16 09:35:36;;;;;;;49.07;34.10;;;5.20;99.90;;;;;;5008637;28;21000;-81
2022/01/16 09:38:04;;;;;;;52.20;33.13;;;5.20;99.90;;;;;;4989417;28;20461;-80
2022/01/16 09:40:33;;;;;;;47.93;32.33;;;5.20;99.90;;;;;;5016524;28;20976;-82
2022/01/16 09:43:00;;;;;;;54.90;32.03;;;5.20;99.90;;;;;;5019877;28;20982;-79
2022/01/16 09:45:27;;;;;;;51.87;32.10;;;5.20;99.90;;;;;;5020254;28;20449;-83
2022/01/16 09:47:54;;;;;;;51.90;32.03;;;5.10;99.90;;;;;;5014525;28;20548;-82
2022/01/16 09:50:25;;;;;;;51.10;29.40;;;5.20;99.90;;;;;;5020913;28;20454;-83
2022/01/16 09:52:59;;;;;;;46.67;30.37;;;5.20;99.90;;;;;;5017751;28;20825;-84
2022/01/16 09:55:30;;;;;;;42.47;28.47;;;5.20;99.90;;;;;;5016695;28;20484;-83
2022/01/16 09:58:00;;;;;;;47.90;30.77;;;5.30;99.90;;;;;;5005415;28;20537;-83
2022/01/16 10:00:27;;;;;;;50.27;34.30;;;5.30;99.90;;;;;;5018864;28;20464;-84
2022/01/16 10:02:55;;;;;;;45.40;30.23;;;5.30;99.90;;;;;;5018907;28;21018;-83
2022/01/16 10:05:25;;;;;;;49.17;31.80;;;5.40;99.90;;;;;;5018423;28;20449;-83
2022/01/16 10:07:54;;;;;;;50.33;29.83;;;5.50;99.90;;;;;;5023012;28;20441;-84
2022/01/16 10:10:26;;;;;;;41.10;29.77;;;5.60;99.90;;;;;;5017966;28;20458;-84
2022/01/16 10:12:54;;;;;;;42.83;28.73;;;5.60;99.90;;;;;;5018965;28;20489;-82
2022/01/16 10:15:25;;;;;;;48.60;28.83;;;5.70;99.90;;;;;;5018728;28;20970;-84
2022/01/16 10:17:54;;;;;;;47.90;30.77;;;5.70;99.90;;;;;;5020975;28;20443;-83
2022/01/16 10:20:21;;;;;;;54.43;37.10;;;5.70;99.90;;;;;;5010868;28;20538;-83
2022/01/16 10:22:50;;;;;;;47.53;28.63;;;5.70;99.90;;;;;;5016109;28;20477;-82
2022/01/16 10:25:34;;;;;;;45.60;27.27;;;5.80;99.90;;;;;;5017946;28;20478;-82
2022/01/16 10:28:03;;;;;;;40.10;28.80;;;5.90;99.90;;;;;;5004380;28;20840;-84
2022/01/16 10:30:41;;;;;;;44.17;28.53;;;5.80;99.90;;;;;;5020145;28;20534;-83
2022/01/16 10:33:12;;;;;;;42.97;28.93;;;5.80;99.90;;;;;;5013729;28;20478;-84
2022/01/16 10:35:40;;;;;;;42.60;28.43;;;5.80;99.90;;;;;;5018221;28;20475;-84
2022/01/16 10:38:16;;;;;;;43.07;26.97;;;5.90;99.90;;;;;;5021586;28;20910;-84
2022/01/16 10:40:50;;;;;;;44.13;28.40;;;6.00;99.90;;;;;;5017738;28;20458;-83
2022/01/16 10:43:18;;;;;;;39.03;26.90;;;6.10;99.90;;;;;;5018402;28;20494;-83
2022/01/16 10:45:51;;;;;;;35.87;24.77;;;6.10;99.90;;;;;;5019594;28;20456;-84
2022/01/16 10:48:24;;;;;;;40.87;26.00;;;6.10;99.90;;;;;;5022287;28;21022;-82
2022/01/16 10:50:52;;;;;;;43.67;27.17;;;6.10;99.90;;;;;;5022519;28;20490;-84
2022/01/16 10:53:23;;;;;;;39.73;25.67;;;6.00;99.90;;;;;;5024397;28;20485;-84
2022/01/16 10:55:51;;;;;;;40.07;26.43;;;6.00;99.90;;;;;;5022922;28;20477;-82
2022/01/16 10:58:21;;;;;;;42.00;25.77;;;6.00;99.90;;;;;;5021274;28;20503;-81
2022/01/16 11:00:54;;;;;;;39.97;26.10;;;5.90;99.90;;;;;;5007900;28;20460;-83
2022/01/16 11:03:22;;;;;;;41.23;24.07;;;6.00;99.90;;;;;;5019306;28;20473;-82
2022/01/16 11:05:50;;;;;;;43.10;25.53;;;6.10;99.90;;;;;;5007392;28;20460;-83
2022/01/16 11:08:19;;;;;;;39.17;25.47;;;6.20;99.90;;;;;;5021153;28;20457;-83
2022/01/16 11:10:48;;;;;;;37.67;22.20;;;6.20;99.90;;;;;;5020778;28;20511;-83
2022/01/16 11:15:46;;;;;;;42.13;25.50;;;6.30;99.90;;;;;;5017981;28;20568;-82
2022/01/16 11:18:14;;;;;;;38.47;25.60;;;6.20;99.90;;;;;;5028810;28;20455;-82
2022/01/16 11:20:45;;;;;;;36.37;24.47;;;6.30;99.90;;;;;;5038929;28;20454;-82
2022/01/16 11:23:16;;;;;;;39.80;26.33;;;6.30;99.90;;;;;;5029854;28;20472;-82
2022/01/16 11:25:45;;;;;;;41.70;28.13;;;6.20;99.90;;;;;;5015697;28;20509;-82
2022/01/16 11:28:14;;;;;;;37.40;24.20;;;6.20;99.90;;;;;;5009319;28;20452;-81
2022/01/16 11:30:46;;;;;;;37.20;24.47;;;6.20;99.90;;;;;;5013358;28;20451;-81
2022/01/16 11:33:15;;;;;;;41.63;23.83;;;6.30;99.90;;;;;;5023048;28;20461;-83
2022/01/16 11:35:45;;;;;;;40.67;26.07;;;6.20;99.90;;;;;;5028220;28;20494;-82
2022/01/16 11:38:21;;;;;;;37.73;24.73;;;6.20;99.90;;;;;;5037205;28;20936;-83
2022/01/16 11:40:49;;;;;;;42.63;25.33;;;6.20;99.90;;;;;;5018013;28;20493;-84
2022/01/16 11:43:24;;;;;;;46.07;27.97;;;6.20;99.90;;;;;;5014261;28;20976;-81
2022/01/16 11:45:56;;;;;;;42.73;27.50;;;6.10;99.90;;;;;;5014128;28;20457;-82
2022/01/16 11:48:53;;;;;;;40.93;25.07;;;6.10;99.90;;;;;;5013487;28;20442;-83
2022/01/16 11:52:02;;;;;;;41.40;26.10;;;6.10;99.90;;;;;;5011493;28;20517;-83
2022/01/16 11:54:40;;;;;;;49.23;27.23;;;6.30;99.90;;;;;;5011127;28;20487;-83
2022/01/16 11:57:23;;;;;;;45.00;27.10;;;6.40;99.90;;;;;;5007491;28;20475;-83
2022/01/16 11:59:54;;;;;;;44.63;27.27;;;6.50;99.90;;;;;;5018700;28;20546;-84
2022/01/16 12:02:26;;;;;;;41.50;26.23;;;6.70;99.90;;;;;;5018586;28;20444;-83
2022/01/16 12:05:05;;;;;;;49.10;28.40;;;6.80;99.90;;;;;;5017555;28;20490;-83
2022/01/16 12:07:47;;;;;;;44.47;27.27;;;6.80;99.90;;;;;;5018767;28;20448;-82
2022/01/16 12:10:39;;;;;;;49.43;27.73;;;6.70;99.90;;;;;;5017974;28;20475;-83
2022/01/16 12:13:12;;;;;;;44.50;28.33;;;6.80;99.90;;;;;;5017255;28;20455;-84
2022/01/16 12:15:39;;;;;;;44.03;25.60;;;6.90;99.90;;;;;;5015326;28;20626;-84
2022/01/16 12:18:05;;;;;;;51.73;30.30;;;7.00;99.90;;;;;;5018366;28;20471;-82
2022/01/16 12:20:38;;;;;;;44.93;28.17;;;6.80;99.90;;;;;;5013948;28;20458;-83
2022/01/16 12:23:08;;;;;;;48.60;28.80;;;6.80;99.90;;;;;;5012656;28;20465;-83
2022/01/16 12:25:37;;;;;;;50.27;29.63;;;6.80;99.90;;;;;;5011418;28;20527;-84
2022/01/16 12:28:15;;;;;;;54.07;29.10;;;6.80;99.90;;;;;;5011434;28;20520;-82
2022/01/16 12:30:48;;;;;;;48.10;27.57;;;6.70;99.90;;;;;;5016659;28;20458;-83
2022/01/16 12:33:30;;;;;;;52.37;29.23;;;6.70;99.90;;;;;;5014362;28;20461;-83
2022/01/16 12:36:11;;;;;;;60.87;31.00;;;6.60;99.90;;;;;;5014193;28;20480;-83
2022/01/16 12:38:40;;;;;;;48.30;30.03;;;6.60;99.90;;;;;;5013702;28;20459;-83
2022/01/16 12:41:09;;;;;;;47.70;28.80;;;6.70;99.90;;;;;;5013954;28;20856;-83
2022/01/16 12:43:44;;;;;;;47.50;26.20;;;6.80;99.90;;;;;;5007710;28;20484;-82
2022/01/16 12:46:13;;;;;;;41.63;26.33;;;6.80;99.90;;;;;;5013876;28;20468;-83
2022/01/16 12:48:41;;;;;;;49.10;28.93;;;6.80;99.90;;;;;;5010639;28;20475;-80
2022/01/16 12:51:11;;;;;;;53.23;30.67;;;6.80;99.90;;;;;;5015149;28;20615;-83
2022/01/16 12:53:41;;;;;;;50.23;30.23;;;6.70;99.90;;;;;;5013012;28;20594;-82
2022/01/16 12:56:22;;;;;;;54.93;30.23;;;6.70;99.90;;;;;;5014124;28;20484;-83
2022/01/16 12:58:50;;;;;;;44.70;28.07;;;6.50;99.90;;;;;;5014741;28;20472;-83
2022/01/16 13:01:17;;;;;;;69.23;32.73;;;6.40;99.90;;;;;;5012592;28;20460;-82
2022/01/16 13:03:45;;;;;;;46.73;28.17;;;6.40;99.90;;;;;;5012450;28;20482;-84
2022/01/16 13:06:34;;;;;;;50.50;31.00;;;6.40;99.90;;;;;;5012789;28;20536;-83
2022/01/16 13:09:05;;;;;;;57.33;29.53;;;6.30;99.90;;;;;;5010562;28;20464;-83
2022/01/16 13:11:34;;;;;;;53.00;29.23;;;6.20;99.90;;;;;;5017509;28;20548;-83
2022/01/16 13:14:02;;;;;;;57.50;31.47;;;6.20;99.90;;;;;;5016812;28;20502;-84
2022/01/16 13:16:30;;;;;;;53.33;29.90;;;6.20;99.90;;;;;;5010455;28;20487;-82
2022/01/16 13:19:02;;;;;;;55.47;29.27;;;6.20;99.90;;;;;;5009141;28;20830;-82
2022/01/16 13:21:35;;;;;;;63.67;32.20;;;6.20;99.90;;;;;;4999043;28;20495;-85
2022/01/16 13:24:04;;;;;;;49.20;27.13;;;6.20;99.90;;;;;;5009485;28;20536;-84
2022/01/16 13:26:32;;;;;;;58.67;29.77;;;6.20;99.90;;;;;;5012625;28;20483;-84
2022/01/16 13:29:04;;;;;;;47.70;27.50;;;6.20;99.90;;;;;;5008583;28;20448;-84